Terminal Aerodrome Forecast
Issued by NWS Caribou, ME

Home | Current Version | Previous Version | Text Only | Print | Product List | Glossary On
Versions: 1 2 3 4 5 6 7 8 9 10 11 12 13 14 15 16 17 18 19 20 21 22 23 24 25 26
000
FTUS41 KCAR 251736
TAFBGR
TAF
KBGR 251736Z 2518/2618 17009KT P6SM SCT050
     FM252200 19008KT P6SM VCTS BKN050CB
     FM260100 20005KT P6SM BKN070
     FM260500 29004KT P6SM FEW250
     FM261200 33008KT P6SM FEW250=

USA.gov is the U.S. government's official web portal to all federal, state and local government web resources and services.